sensor_id;sensor_type;location;lat;lon;timestamp;P1;durP1;ratioP1;P2;durP2;ratioP2
36423;SDS011;22458;45.328;9.514;2023-04-06T00:01:44;6.90;;;5.00;;
36423;SDS011;22458;45.328;9.514;2023-04-06T00:04:12;6.90;;;4.40;;
36423;SDS011;22458;45.328;9.514;2023-04-06T00:06:37;7.47;;;4.38;;
36423;SDS011;22458;45.328;9.514;2023-04-06T00:09:03;4.85;;;4.35;;
36423;SDS011;22458;45.328;9.514;2023-04-06T00:11:29;5.32;;;4.53;;
36423;SDS011;22458;45.328;9.514;2023-04-06T00:13:55;6.43;;;4.63;;
36423;SDS011;22458;45.328;9.514;2023-04-06T00:16:21;8.02;;;4.28;;
36423;SDS011;22458;45.328;9.514;2023-04-06T00:18:46;6.72;;;5.00;;
36423;SDS011;22458;45.328;9.514;2023-04-06T00:21:13;5.15;;;4.65;;
36423;SDS011;22458;45.328;9.514;2023-04-06T00:23:40;5.95;;;4.85;;
36423;SDS011;22458;45.328;9.514;2023-04-06T00:26:06;8.13;;;5.45;;
36423;SDS011;22458;45.328;9.514;2023-04-06T00:28:33;7.47;;;5.65;;
36423;SDS011;22458;45.328;9.514;2023-04-06T00:30:59;7.07;;;5.50;;
36423;SDS011;22458;45.328;9.514;2023-04-06T00:33:25;6.85;;;5.72;;
36423;SDS011;22458;45.328;9.514;2023-04-06T00:35:50;8.60;;;5.93;;
36423;SDS011;22458;45.328;9.514;2023-04-06T00:38:16;11.18;;;6.40;;
36423;SDS011;22458;45.328;9.514;2023-04-06T00:40:43;9.43;;;6.10;;
36423;SDS011;22458;45.328;9.514;2023-04-06T00:43:12;8.27;;;6.55;;
36423;SDS011;22458;45.328;9.514;2023-04-06T00:45:38;7.53;;;5.82;;
36423;SDS011;22458;45.328;9.514;2023-04-06T00:48:05;7.05;;;5.78;;
36423;SDS011;22458;45.328;9.514;2023-04-06T00:50:31;7.70;;;6.18;;
36423;SDS011;22458;45.328;9.514;2023-04-06T00:52:58;9.27;;;5.60;;
36423;SDS011;22458;45.328;9.514;2023-04-06T00:55:26;6.23;;;5.13;;
36423;SDS011;22458;45.328;9.514;2023-04-06T00:57:53;10.35;;;6.32;;
36423;SDS011;22458;45.328;9.514;2023-04-06T01:00:20;7.47;;;5.75;;
36423;SDS011;22458;45.328;9.514;2023-04-06T01:02:50;7.20;;;5.45;;
36423;SDS011;22458;45.328;9.514;2023-04-06T01:05:19;7.25;;;5.60;;
36423;SDS011;22458;45.328;9.514;2023-04-06T01:07:52;9.23;;;6.43;;
36423;SDS011;22458;45.328;9.514;2023-04-06T01:10:26;6.80;;;5.32;;
36423;SDS011;22458;45.328;9.514;2023-04-06T01:13:13;6.35;;;4.90;;
36423;SDS011;22458;45.328;9.514;2023-04-06T01:15:52;6.72;;;5.20;;
36423;SDS011;22458;45.328;9.514;2023-04-06T01:18:26;9.23;;;6.15;;
36423;SDS011;22458;45.328;9.514;2023-04-06T01:21:00;8.05;;;6.07;;
36423;SDS011;22458;45.328;9.514;2023-04-06T01:23:27;7.18;;;5.50;;
36423;SDS011;22458;45.328;9.514;2023-04-06T01:25:53;8.00;;;5.85;;
36423;SDS011;22458;45.328;9.514;2023-04-06T01:28:18;9.43;;;6.20;;
36423;SDS011;22458;45.328;9.514;2023-04-06T01:31:01;7.38;;;6.18;;
36423;SDS011;22458;45.328;9.514;2023-04-06T01:33:39;9.68;;;6.05;;
36423;SDS011;22458;45.328;9.514;2023-04-06T01:36:08;9.48;;;6.03;;
36423;SDS011;22458;45.328;9.514;2023-04-06T01:38:35;7.75;;;6.18;;
36423;SDS011;22458;45.328;9.514;2023-04-06T01:41:01;6.75;;;5.88;;
36423;SDS011;22458;45.328;9.514;2023-04-06T01:43:33;8.07;;;6.30;;
36423;SDS011;22458;45.328;9.514;2023-04-06T01:46:08;8.88;;;5.60;;
36423;SDS011;22458;45.328;9.514;2023-04-06T01:51:16;7.32;;;5.57;;
36423;SDS011;22458;45.328;9.514;2023-04-06T01:53:54;8.90;;;6.22;;
36423;SDS011;22458;45.328;9.514;2023-04-06T01:56:27;7.25;;;6.15;;
36423;SDS011;22458;45.328;9.514;2023-04-06T01:59:08;10.20;;;6.15;;
36423;SDS011;22458;45.328;9.514;2023-04-06T02:01:38;8.88;;;6.95;;
36423;SDS011;22458;45.328;9.514;2023-04-06T02:04:04;8.32;;;6.47;;
36423;SDS011;22458;45.328;9.514;2023-04-06T02:06:30;7.57;;;6.18;;
36423;SDS011;22458;45.328;9.514;2023-04-06T02:08:56;6.82;;;5.80;;
36423;SDS011;22458;45.328;9.514;2023-04-06T02:11:22;10.60;;;5.25;;
36423;SDS011;22458;45.328;9.514;2023-04-06T02:13:52;10.00;;;5.65;;
36423;SDS011;22458;45.328;9.514;2023-04-06T02:16:18;6.82;;;5.70;;
36423;SDS011;22458;45.328;9.514;2023-04-06T02:18:45;8.07;;;6.07;;
36423;SDS011;22458;45.328;9.514;2023-04-06T02:21:11;8.35;;;6.20;;
36423;SDS011;22458;45.328;9.514;2023-04-06T02:23:36;10.27;;;5.85;;
36423;SDS011;22458;45.328;9.514;2023-04-06T02:26:02;7.35;;;5.68;;
36423;SDS011;22458;45.328;9.514;2023-04-06T02:28:28;8.68;;;5.32;;
36423;SDS011;22458;45.328;9.514;2023-04-06T02:30:54;6.97;;;5.55;;
36423;SDS011;22458;45.328;9.514;2023-04-06T02:33:24;8.30;;;5.50;;
36423;SDS011;22458;45.328;9.514;2023-04-06T02:35:51;9.00;;;6.10;;
36423;SDS011;22458;45.328;9.514;2023-04-06T02:38:16;7.85;;;5.50;;
36423;SDS011;22458;45.328;9.514;2023-04-06T02:40:43;8.07;;;6.28;;
36423;SDS011;22458;45.328;9.514;2023-04-06T02:43:21;6.47;;;5.38;;
36423;SDS011;22458;45.328;9.514;2023-04-06T02:45:51;6.28;;;5.47;;
36423;SDS011;22458;45.328;9.514;2023-04-06T02:48:19;7.25;;;5.85;;
36423;SDS011;22458;45.328;9.514;2023-04-06T02:50:45;7.90;;;6.53;;
36423;SDS011;22458;45.328;9.514;2023-04-06T02:53:10;8.60;;;6.22;;
36423;SDS011;22458;45.328;9.514;2023-04-06T02:55:38;11.90;;;5.70;;
36423;SDS011;22458;45.328;9.514;2023-04-06T02:58:04;7.35;;;5.75;;
36423;SDS011;22458;45.328;9.514;2023-04-06T03:00:40;8.77;;;6.15;;
36423;SDS011;22458;45.328;9.514;2023-04-06T03:03:05;6.40;;;5.38;;
36423;SDS011;22458;45.328;9.514;2023-04-06T03:05:32;6.78;;;5.78;;
36423;SDS011;22458;45.328;9.514;2023-04-06T03:07:58;8.00;;;5.45;;
36423;SDS011;22458;45.328;9.514;2023-04-06T03:10:39;7.07;;;5.38;;
36423;SDS011;22458;45.328;9.514;2023-04-06T03:13:05;6.13;;;5.53;;
36423;SDS011;22458;45.328;9.514;2023-04-06T03:15:53;8.20;;;5.55;;
36423;SDS011;22458;45.328;9.514;2023-04-06T03:18:23;7.45;;;6.53;;
36423;SDS011;22458;45.328;9.514;2023-04-06T03:20:51;7.63;;;5.63;;
36423;SDS011;22458;45.328;9.514;2023-04-06T03:23:19;8.05;;;5.22;;
36423;SDS011;22458;45.328;9.514;2023-04-06T03:25:49;6.53;;;5.25;;
36423;SDS011;22458;45.328;9.514;2023-04-06T03:28:18;6.93;;;5.50;;
36423;SDS011;22458;45.328;9.514;2023-04-06T03:30:51;7.72;;;5.85;;
36423;SDS011;22458;45.328;9.514;2023-04-06T03:33:24;8.30;;;5.90;;
36423;SDS011;22458;45.328;9.514;2023-04-06T03:35:54;6.72;;;5.78;;
36423;SDS011;22458;45.328;9.514;2023-04-06T03:38:24;9.45;;;5.57;;
36423;SDS011;22458;45.328;9.514;2023-04-06T03:40:50;8.55;;;4.85;;
36423;SDS011;22458;45.328;9.514;2023-04-06T03:43:20;7.88;;;5.90;;
36423;SDS011;22458;45.328;9.514;2023-04-06T03:45:46;8.77;;;5.63;;
36423;SDS011;22458;45.328;9.514;2023-04-06T03:48:13;7.63;;;5.53;;
36423;SDS011;22458;45.328;9.514;2023-04-06T03:50:39;7.00;;;5.53;;
36423;SDS011;22458;45.328;9.514;2023-04-06T03:53:04;7.95;;;6.25;;
36423;SDS011;22458;45.328;9.514;2023-04-06T03:55:30;7.65;;;5.82;;
36423;SDS011;22458;45.328;9.514;2023-04-06T03:57:56;8.07;;;5.35;;
36423;SDS011;22458;45.328;9.514;2023-04-06T04:00:23;9.93;;;6.22;;
36423;SDS011;22458;45.328;9.514;2023-04-06T04:02:49;8.93;;;6.68;;
36423;SDS011;22458;45.328;9.514;2023-04-06T04:05:15;8.55;;;6.13;;
36423;SDS011;22458;45.328;9.514;2023-04-06T04:07:41;10.00;;;6.03;;
36423;SDS011;22458;45.328;9.514;2023-04-06T04:10:09;8.80;;;5.70;;
36423;SDS011;22458;45.328;9.514;2023-04-06T04:12:36;9.50;;;6.25;;
36423;SDS011;22458;45.328;9.514;2023-04-06T04:15:01;7.70;;;5.60;;
36423;SDS011;22458;45.328;9.514;2023-04-06T04:17:28;7.07;;;6.13;;
36423;SDS011;22458;45.328;9.514;2023-04-06T04:19:54;8.82;;;6.47;;
36423;SDS011;22458;45.328;9.514;2023-04-06T04:22:20;6.63;;;5.68;;
36423;SDS011;22458;45.328;9.514;2023-04-06T04:24:45;7.65;;;6.10;;
36423;SDS011;22458;45.328;9.514;2023-04-06T04:27:12;6.93;;;5.30;;
36423;SDS011;22458;45.328;9.514;2023-04-06T04:29:39;7.00;;;5.20;;
36423;SDS011;22458;45.328;9.514;2023-04-06T04:32:09;8.88;;;5.85;;
36423;SDS011;22458;45.328;9.514;2023-04-06T04:34:35;6.35;;;5.75;;
36423;SDS011;22458;45.328;9.514;2023-04-06T04:37:03;7.40;;;5.80;;
36423;SDS011;22458;45.328;9.514;2023-04-06T04:39:42;8.57;;;5.80;;
36423;SDS011;22458;45.328;9.514;2023-04-06T04:42:08;7.80;;;5.85;;
36423;SDS011;22458;45.328;9.514;2023-04-06T04:44:37;7.70;;;6.43;;
36423;SDS011;22458;45.328;9.514;2023-04-06T04:47:03;9.38;;;7.20;;
36423;SDS011;22458;45.328;9.514;2023-04-06T04:49:38;9.88;;;6.80;;
36423;SDS011;22458;45.328;9.514;2023-04-06T04:52:05;11.88;;;7.88;;
36423;SDS011;22458;45.328;9.514;2023-04-06T04:54:45;11.60;;;7.43;;
36423;SDS011;22458;45.328;9.514;2023-04-06T04:57:19;14.60;;;7.60;;
36423;SDS011;22458;45.328;9.514;2023-04-06T04:59:45;11.65;;;7.53;;
36423;SDS011;22458;45.328;9.514;2023-04-06T05:02:17;8.65;;;6.60;;
36423;SDS011;22458;45.328;9.514;2023-04-06T05:05:03;8.63;;;6.40;;
36423;SDS011;22458;45.328;9.514;2023-04-06T05:07:29;8.93;;;6.35;;
36423;SDS011;22458;45.328;9.514;2023-04-06T05:09:57;7.45;;;5.57;;
36423;SDS011;22458;45.328;9.514;2023-04-06T05:12:26;10.65;;;6.35;;
36423;SDS011;22458;45.328;9.514;2023-04-06T05:15:03;10.60;;;6.45;;
36423;SDS011;22458;45.328;9.514;2023-04-06T05:17:30;9.93;;;6.22;;
36423;SDS011;22458;45.328;9.514;2023-04-06T05:19:57;7.78;;;6.35;;
36423;SDS011;22458;45.328;9.514;2023-04-06T05:22:24;13.20;;;6.50;;
36423;SDS011;22458;45.328;9.514;2023-04-06T05:25:02;6.57;;;5.72;;
36423;SDS011;22458;45.328;9.514;2023-04-06T05:27:29;8.80;;;6.07;;
36423;SDS011;22458;45.328;9.514;2023-04-06T05:29:56;7.50;;;6.10;;
36423;SDS011;22458;45.328;9.514;2023-04-06T05:32:24;9.60;;;7.15;;
36423;SDS011;22458;45.328;9.514;2023-04-06T05:34:51;8.40;;;6.38;;
36423;SDS011;22458;45.328;9.514;2023-04-06T05:37:16;10.00;;;6.90;;
36423;SDS011;22458;45.328;9.514;2023-04-06T05:39:43;10.70;;;6.70;;
36423;SDS011;22458;45.328;9.514;2023-04-06T05:42:10;8.75;;;6.53;;
36423;SDS011;22458;45.328;9.514;2023-04-06T05:44:57;10.02;;;7.05;;
36423;SDS011;22458;45.328;9.514;2023-04-06T05:47:23;10.48;;;6.50;;
36423;SDS011;22458;45.328;9.514;2023-04-06T05:49:56;8.98;;;6.32;;
36423;SDS011;22458;45.328;9.514;2023-04-06T05:52:30;11.32;;;7.07;;
36423;SDS011;22458;45.328;9.514;2023-04-06T05:54:56;11.20;;;6.80;;
36423;SDS011;22458;45.328;9.514;2023-04-06T05:57:23;11.13;;;6.82;;
36423;SDS011;22458;45.328;9.514;2023-04-06T05:59:49;8.55;;;7.07;;
36423;SDS011;22458;45.328;9.514;2023-04-06T06:02:15;13.60;;;8.05;;
36423;SDS011;22458;45.328;9.514;2023-04-06T06:04:45;9.25;;;6.72;;
36423;SDS011;22458;45.328;9.514;2023-04-06T06:07:12;10.32;;;6.72;;
36423;SDS011;22458;45.328;9.514;2023-04-06T06:09:44;15.15;;;7.88;;
36423;SDS011;22458;45.328;9.514;2023-04-06T06:12:19;8.93;;;6.50;;
36423;SDS011;22458;45.328;9.514;2023-04-06T06:14:46;9.70;;;6.85;;
36423;SDS011;22458;45.328;9.514;2023-04-06T06:17:12;9.60;;;7.00;;
36423;SDS011;22458;45.328;9.514;2023-04-06T06:19:41;12.93;;;7.68;;
36423;SDS011;22458;45.328;9.514;2023-04-06T06:22:07;12.05;;;7.57;;
36423;SDS011;22458;45.328;9.514;2023-04-06T06:24:38;11.40;;;7.13;;
36423;SDS011;22458;45.328;9.514;2023-04-06T06:27:03;11.90;;;6.57;;
36423;SDS011;22458;45.328;9.514;2023-04-06T06:29:32;11.05;;;7.68;;
36423;SDS011;22458;45.328;9.514;2023-04-06T06:31:59;11.68;;;7.90;;
36423;SDS011;22458;45.328;9.514;2023-04-06T06:34:25;10.68;;;7.50;;
36423;SDS011;22458;45.328;9.514;2023-04-06T06:36:52;10.80;;;7.43;;
36423;SDS011;22458;45.328;9.514;2023-04-06T06:39:21;13.07;;;7.88;;
36423;SDS011;22458;45.328;9.514;2023-04-06T06:41:48;11.77;;;7.90;;
36423;SDS011;22458;45.328;9.514;2023-04-06T06:44:14;11.13;;;7.50;;
36423;SDS011;22458;45.328;9.514;2023-04-06T06:46:41;12.27;;;7.53;;
36423;SDS011;22458;45.328;9.514;2023-04-06T06:49:09;11.68;;;7.68;;
36423;SDS011;22458;45.328;9.514;2023-04-06T06:51:37;12.30;;;8.38;;
36423;SDS011;22458;45.328;9.514;2023-04-06T06:54:03;9.43;;;6.88;;
36423;SDS011;22458;45.328;9.514;2023-04-06T06:56:29;12.43;;;7.28;;
36423;SDS011;22458;45.328;9.514;2023-04-06T06:58:54;10.20;;;7.60;;
36423;SDS011;22458;45.328;9.514;2023-04-06T07:01:20;12.23;;;7.65;;
36423;SDS011;22458;45.328;9.514;2023-04-06T07:03:46;10.65;;;7.32;;
36423;SDS011;22458;45.328;9.514;2023-04-06T07:06:12;12.38;;;7.43;;
36423;SDS011;22458;45.328;9.514;2023-04-06T07:08:39;11.50;;;8.13;;
36423;SDS011;22458;45.328;9.514;2023-04-06T07:11:05;10.48;;;7.40;;
36423;SDS011;22458;45.328;9.514;2023-04-06T07:13:31;11.23;;;7.40;;
36423;SDS011;22458;45.328;9.514;2023-04-06T07:15:59;9.35;;;6.60;;
36423;SDS011;22458;45.328;9.514;2023-04-06T07:18:25;15.35;;;7.43;;
36423;SDS011;22458;45.328;9.514;2023-04-06T07:20:51;10.98;;;7.10;;
36423;SDS011;22458;45.328;9.514;2023-04-06T07:23:17;10.35;;;6.70;;
36423;SDS011;22458;45.328;9.514;2023-04-06T07:25:44;8.00;;;6.57;;
36423;SDS011;22458;45.328;9.514;2023-04-06T07:28:10;9.85;;;6.60;;
36423;SDS011;22458;45.328;9.514;2023-04-06T07:30:36;9.23;;;6.30;;
36423;SDS011;22458;45.328;9.514;2023-04-06T07:33:03;12.10;;;7.18;;
36423;SDS011;22458;45.328;9.514;2023-04-06T07:35:31;12.27;;;6.75;;
36423;SDS011;22458;45.328;9.514;2023-04-06T07:37:57;11.68;;;6.88;;
36423;SDS011;22458;45.328;9.514;2023-04-06T07:40:23;8.98;;;6.43;;
36423;SDS011;22458;45.328;9.514;2023-04-06T07:42:50;13.50;;;5.90;;
36423;SDS011;22458;45.328;9.514;2023-04-06T07:45:15;9.38;;;5.47;;
36423;SDS011;22458;45.328;9.514;2023-04-06T07:47:42;9.93;;;6.75;;
36423;SDS011;22458;45.328;9.514;2023-04-06T07:50:09;9.93;;;4.78;;
36423;SDS011;22458;45.328;9.514;2023-04-06T07:52:36;6.78;;;4.72;;
36423;SDS011;22458;45.328;9.514;2023-04-06T07:55:02;5.25;;;4.22;;
36423;SDS011;22458;45.328;9.514;2023-04-06T07:57:28;5.40;;;4.18;;
36423;SDS011;22458;45.328;9.514;2023-04-06T07:59:54;5.78;;;3.78;;
36423;SDS011;22458;45.328;9.514;2023-04-06T08:02:20;5.68;;;4.40;;
36423;SDS011;22458;45.328;9.514;2023-04-06T08:04:46;5.68;;;4.43;;
36423;SDS011;22458;45.328;9.514;2023-04-06T08:07:12;8.88;;;5.40;;
36423;SDS011;22458;45.328;9.514;2023-04-06T08:09:38;4.55;;;3.80;;
36423;SDS011;22458;45.328;9.514;2023-04-06T08:12:03;6.43;;;4.35;;
36423;SDS011;22458;45.328;9.514;2023-04-06T08:14:29;5.35;;;4.43;;
36423;SDS011;22458;45.328;9.514;2023-04-06T08:16:55;7.57;;;4.20;;
36423;SDS011;22458;45.328;9.514;2023-04-06T08:19:21;6.70;;;4.88;;
36423;SDS011;22458;45.328;9.514;2023-04-06T08:21:47;4.85;;;4.18;;
36423;SDS011;22458;45.328;9.514;2023-04-06T08:24:13;6.80;;;4.70;;
36423;SDS011;22458;45.328;9.514;2023-04-06T08:26:40;7.20;;;4.22;;
36423;SDS011;22458;45.328;9.514;2023-04-06T08:29:06;5.65;;;3.75;;
36423;SDS011;22458;45.328;9.514;2023-04-06T08:31:34;9.63;;;5.18;;
36423;SDS011;22458;45.328;9.514;2023-04-06T08:34:01;5.47;;;4.70;;
36423;SDS011;22458;45.328;9.514;2023-04-06T08:36:28;5.65;;;4.13;;
36423;SDS011;22458;45.328;9.514;2023-04-06T08:38:54;6.95;;;4.13;;
36423;SDS011;22458;45.328;9.514;2023-04-06T08:41:20;6.60;;;3.67;;
36423;SDS011;22458;45.328;9.514;2023-04-06T08:43:47;5.45;;;4.75;;
36423;SDS011;22458;45.328;9.514;2023-04-06T08:46:14;4.63;;;4.00;;
36423;SDS011;22458;45.328;9.514;2023-04-06T08:48:41;6.32;;;3.70;;
36423;SDS011;22458;45.328;9.514;2023-04-06T08:51:11;6.13;;;3.92;;
36423;SDS011;22458;45.328;9.514;2023-04-06T08:53:37;5.03;;;4.35;;
36423;SDS011;22458;45.328;9.514;2023-04-06T08:56:04;5.90;;;3.58;;
36423;SDS011;22458;45.328;9.514;2023-04-06T08:58:37;6.85;;;5.45;;
36423;SDS011;22458;45.328;9.514;2023-04-06T09:01:06;6.00;;;4.10;;
36423;SDS011;22458;45.328;9.514;2023-04-06T09:03:37;4.65;;;3.42;;
36423;SDS011;22458;45.328;9.514;2023-04-06T09:06:07;4.53;;;3.95;;
36423;SDS011;22458;45.328;9.514;2023-04-06T09:08:34;7.45;;;4.05;;
36423;SDS011;22458;45.328;9.514;2023-04-06T09:11:01;8.77;;;4.68;;
36423;SDS011;22458;45.328;9.514;2023-04-06T09:13:28;5.93;;;4.00;;
36423;SDS011;22458;45.328;9.514;2023-04-06T09:16:04;4.40;;;3.67;;
36423;SDS011;22458;45.328;9.514;2023-04-06T09:18:31;4.38;;;3.45;;
36423;SDS011;22458;45.328;9.514;2023-04-06T09:21:02;4.90;;;3.72;;
36423;SDS011;22458;45.328;9.514;2023-04-06T09:23:31;6.68;;;3.67;;
36423;SDS011;22458;45.328;9.514;2023-04-06T09:31:28;4.50;;;3.22;;
36423;SDS011;22458;45.328;9.514;2023-04-06T09:33:55;5.97;;;4.25;;
36423;SDS011;22458;45.328;9.514;2023-04-06T09:36:35;7.13;;;3.85;;
36423;SDS011;22458;45.328;9.514;2023-04-06T09:39:06;6.90;;;3.63;;
36423;SDS011;22458;45.328;9.514;2023-04-06T09:41:33;6.75;;;3.47;;
36423;SDS011;22458;45.328;9.514;2023-04-06T09:46:36;5.82;;;3.42;;
36423;SDS011;22458;45.328;9.514;2023-04-06T09:49:04;4.10;;;3.20;;
36423;SDS011;22458;45.328;9.514;2023-04-06T09:51:36;4.22;;;3.22;;
36423;SDS011;22458;45.328;9.514;2023-04-06T09:54:06;7.10;;;4.00;;
36423;SDS011;22458;45.328;9.514;2023-04-06T09:59:24;5.95;;;4.10;;
36423;SDS011;22458;45.328;9.514;2023-04-06T10:01:56;5.00;;;3.72;;
36423;SDS011;22458;45.328;9.514;2023-04-06T10:06:53;4.75;;;3.67;;
36423;SDS011;22458;45.328;9.514;2023-04-06T10:09:22;5.50;;;3.72;;
36423;SDS011;22458;45.328;9.514;2023-04-06T10:11:53;5.45;;;3.88;;
36423;SDS011;22458;45.328;9.514;2023-04-06T10:14:20;4.53;;;4.00;;
36423;SDS011;22458;45.328;9.514;2023-04-06T10:16:47;5.18;;;3.90;;
36423;SDS011;22458;45.328;9.514;2023-04-06T10:19:16;5.40;;;3.77;;
36423;SDS011;22458;45.328;9.514;2023-04-06T10:21:48;5.28;;;4.03;;
36423;SDS011;22458;45.328;9.514;2023-04-06T10:24:18;4.93;;;4.10;;
36423;SDS011;22458;45.328;9.514;2023-04-06T10:26:56;4.22;;;3.45;;
36423;SDS011;22458;45.328;9.514;2023-04-06T10:29:28;5.38;;;4.50;;
36423;SDS011;22458;45.328;9.514;2023-04-06T10:32:05;4.90;;;4.22;;
36423;SDS011;22458;45.328;9.514;2023-04-06T10:34:37;5.05;;;4.25;;
36423;SDS011;22458;45.328;9.514;2023-04-06T10:37:21;7.20;;;4.35;;
36423;SDS011;22458;45.328;9.514;2023-04-06T10:39:47;6.15;;;4.40;;
36423;SDS011;22458;45.328;9.514;2023-04-06T10:42:23;5.75;;;4.40;;
36423;SDS011;22458;45.328;9.514;2023-04-06T10:44:50;7.55;;;5.03;;
36423;SDS011;22458;45.328;9.514;2023-04-06T10:47:16;5.65;;;4.72;;
36423;SDS011;22458;45.328;9.514;2023-04-06T10:49:43;7.95;;;4.82;;
36423;SDS011;22458;45.328;9.514;2023-04-06T10:52:09;8.25;;;4.72;;
36423;SDS011;22458;45.328;9.514;2023-04-06T10:54:34;7.60;;;5.03;;
36423;SDS011;22458;45.328;9.514;2023-04-06T10:57:07;6.78;;;5.03;;
36423;SDS011;22458;45.328;9.514;2023-04-06T10:59:33;4.93;;;4.40;;
36423;SDS011;22458;45.328;9.514;2023-04-06T11:01:59;7.20;;;4.30;;
36423;SDS011;22458;45.328;9.514;2023-04-06T11:04:25;7.07;;;5.00;;
36423;SDS011;22458;45.328;9.514;2023-04-06T11:06:51;6.38;;;4.80;;
36423;SDS011;22458;45.328;9.514;2023-04-06T11:09:26;6.80;;;5.32;;
36423;SDS011;22458;45.328;9.514;2023-04-06T11:11:53;10.82;;;5.38;;
36423;SDS011;22458;45.328;9.514;2023-04-06T11:14:20;6.72;;;5.93;;
36423;SDS011;22458;45.328;9.514;2023-04-06T11:16:47;6.70;;;5.05;;
36423;SDS011;22458;45.328;9.514;2023-04-06T11:19:15;8.63;;;6.30;;
36423;SDS011;22458;45.328;9.514;2023-04-06T11:21:41;7.97;;;4.82;;
36423;SDS011;22458;45.328;9.514;2023-04-06T11:24:21;7.22;;;5.40;;
36423;SDS011;22458;45.328;9.514;2023-04-06T11:26:53;5.78;;;5.13;;
36423;SDS011;22458;45.328;9.514;2023-04-06T11:29:22;6.38;;;5.00;;
36423;SDS011;22458;45.328;9.514;2023-04-06T11:31:49;7.47;;;5.68;;
36423;SDS011;22458;45.328;9.514;2023-04-06T11:34:22;6.22;;;5.30;;
36423;SDS011;22458;45.328;9.514;2023-04-06T11:36:53;5.75;;;4.95;;
36423;SDS011;22458;45.328;9.514;2023-04-06T11:39:22;9.27;;;5.18;;
36423;SDS011;22458;45.328;9.514;2023-04-06T11:42:07;8.70;;;5.28;;
36423;SDS011;22458;45.328;9.514;2023-04-06T11:44:38;7.03;;;5.15;;
36423;SDS011;22458;45.328;9.514;2023-04-06T11:47:06;6.32;;;5.50;;
36423;SDS011;22458;45.328;9.514;2023-04-06T11:49:33;12.65;;;5.20;;
36423;SDS011;22458;45.328;9.514;2023-04-06T11:52:02;6.97;;;5.07;;
36423;SDS011;22458;45.328;9.514;2023-04-06T11:54:38;6.45;;;5.18;;
36423;SDS011;22458;45.328;9.514;2023-04-06T11:57:06;10.45;;;5.78;;
36423;SDS011;22458;45.328;9.514;2023-04-06T11:59:33;8.35;;;5.18;;
36423;SDS011;22458;45.328;9.514;2023-04-06T12:02:00;6.18;;;5.20;;
36423;SDS011;22458;45.328;9.514;2023-04-06T12:04:27;5.80;;;5.13;;
36423;SDS011;22458;45.328;9.514;2023-04-06T12:06:53;6.60;;;5.20;;
36423;SDS011;22458;45.328;9.514;2023-04-06T12:09:20;5.90;;;5.28;;
36423;SDS011;22458;45.328;9.514;2023-04-06T12:11:46;6.53;;;5.13;;
36423;SDS011;22458;45.328;9.514;2023-04-06T12:14:12;9.00;;;5.57;;
36423;SDS011;22458;45.328;9.514;2023-04-06T12:16:38;6.72;;;5.38;;
36423;SDS011;22458;45.328;9.514;2023-04-06T12:19:04;11.38;;;5.45;;
36423;SDS011;22458;45.328;9.514;2023-04-06T12:21:30;6.35;;;5.00;;
36423;SDS011;22458;45.328;9.514;2023-04-06T12:23:57;7.10;;;4.97;;
36423;SDS011;22458;45.328;9.514;2023-04-06T12:26:23;6.20;;;5.28;;
36423;SDS011;22458;45.328;9.514;2023-04-06T12:28:50;7.90;;;5.72;;
36423;SDS011;22458;45.328;9.514;2023-04-06T12:31:16;8.52;;;6.20;;
36423;SDS011;22458;45.328;9.514;2023-04-06T12:33:43;8.63;;;6.18;;
36423;SDS011;22458;45.328;9.514;2023-04-06T12:36:15;6.40;;;5.63;;
36423;SDS011;22458;45.328;9.514;2023-04-06T12:38:49;11.32;;;6.50;;
36423;SDS011;22458;45.328;9.514;2023-04-06T12:41:19;9.07;;;5.80;;
36423;SDS011;22458;45.328;9.514;2023-04-06T12:43:45;6.03;;;5.43;;
36423;SDS011;22458;45.328;9.514;2023-04-06T12:46:11;6.40;;;5.75;;
36423;SDS011;22458;45.328;9.514;2023-04-06T12:48:37;8.55;;;6.05;;
36423;SDS011;22458;45.328;9.514;2023-04-06T12:51:04;7.85;;;6.07;;
36423;SDS011;22458;45.328;9.514;2023-04-06T12:53:31;7.78;;;6.38;;
36423;SDS011;22458;45.328;9.514;2023-04-06T12:55:57;8.85;;;5.93;;
36423;SDS011;22458;45.328;9.514;2023-04-06T12:58:24;6.45;;;5.78;;
36423;SDS011;22458;45.328;9.514;2023-04-06T13:00:54;8.38;;;6.22;;
36423;SDS011;22458;45.328;9.514;2023-04-06T13:03:22;7.32;;;6.10;;
36423;SDS011;22458;45.328;9.514;2023-04-06T13:05:49;8.98;;;6.18;;
36423;SDS011;22458;45.328;9.514;2023-04-06T13:08:16;7.57;;;6.05;;
36423;SDS011;22458;45.328;9.514;2023-04-06T13:10:47;9.18;;;6.20;;
36423;SDS011;22458;45.328;9.514;2023-04-06T13:13:14;7.18;;;5.97;;
36423;SDS011;22458;45.328;9.514;2023-04-06T13:15:40;8.23;;;5.70;;
36423;SDS011;22458;45.328;9.514;2023-04-06T13:18:06;8.13;;;6.30;;
36423;SDS011;22458;45.328;9.514;2023-04-06T13:20:33;6.68;;;5.57;;
36423;SDS011;22458;45.328;9.514;2023-04-06T13:22:59;5.45;;;4.68;;
36423;SDS011;22458;45.328;9.514;2023-04-06T13:25:24;8.85;;;6.13;;
36423;SDS011;22458;45.328;9.514;2023-04-06T13:27:50;9.90;;;6.40;;
36423;SDS011;22458;45.328;9.514;2023-04-06T13:30:16;8.40;;;6.40;;
36423;SDS011;22458;45.328;9.514;2023-04-06T13:32:42;10.55;;;6.57;;
36423;SDS011;22458;45.328;9.514;2023-04-06T13:35:08;7.22;;;6.10;;
36423;SDS011;22458;45.328;9.514;2023-04-06T13:37:34;7.85;;;6.43;;
36423;SDS011;22458;45.328;9.514;2023-04-06T13:40:04;8.68;;;6.40;;
36423;SDS011;22458;45.328;9.514;2023-04-06T13:42:30;7.20;;;6.28;;
36423;SDS011;22458;45.328;9.514;2023-04-06T13:44:57;8.57;;;6.35;;
36423;SDS011;22458;45.328;9.514;2023-04-06T13:47:27;8.00;;;6.47;;
36423;SDS011;22458;45.328;9.514;2023-04-06T13:49:53;6.97;;;6.28;;
36423;SDS011;22458;45.328;9.514;2023-04-06T13:52:20;7.95;;;6.53;;
36423;SDS011;22458;45.328;9.514;2023-04-06T13:54:46;7.90;;;6.82;;
36423;SDS011;22458;45.328;9.514;2023-04-06T13:57:12;9.00;;;6.05;;
36423;SDS011;22458;45.328;9.514;2023-04-06T13:59:38;9.10;;;6.70;;
36423;SDS011;22458;45.328;9.514;2023-04-06T14:02:05;7.82;;;6.13;;
36423;SDS011;22458;45.328;9.514;2023-04-06T14:04:32;8.25;;;6.10;;
36423;SDS011;22458;45.328;9.514;2023-04-06T14:06:59;12.48;;;6.43;;
36423;SDS011;22458;45.328;9.514;2023-04-06T14:09:25;7.22;;;5.97;;
36423;SDS011;22458;45.328;9.514;2023-04-06T14:11:51;7.60;;;6.13;;
36423;SDS011;22458;45.328;9.514;2023-04-06T14:14:17;7.90;;;5.88;;
36423;SDS011;22458;45.328;9.514;2023-04-06T14:16:43;7.22;;;5.35;;
36423;SDS011;22458;45.328;9.514;2023-04-06T14:19:13;7.57;;;6.30;;
36423;SDS011;22458;45.328;9.514;2023-04-06T14:21:41;7.38;;;5.93;;
36423;SDS011;22458;45.328;9.514;2023-04-06T14:24:08;7.28;;;5.88;;
36423;SDS011;22458;45.328;9.514;2023-04-06T14:26:35;7.60;;;5.80;;
36423;SDS011;22458;45.328;9.514;2023-04-06T14:29:01;7.35;;;5.75;;
36423;SDS011;22458;45.328;9.514;2023-04-06T14:31:28;6.30;;;5.47;;
36423;SDS011;22458;45.328;9.514;2023-04-06T14:33:53;6.55;;;5.65;;
36423;SDS011;22458;45.328;9.514;2023-04-06T14:36:19;7.70;;;5.75;;
36423;SDS011;22458;45.328;9.514;2023-04-06T14:38:45;9.55;;;5.65;;
36423;SDS011;22458;45.328;9.514;2023-04-06T14:41:17;7.55;;;6.10;;
36423;SDS011;22458;45.328;9.514;2023-04-06T14:43:45;7.60;;;6.18;;
36423;SDS011;22458;45.328;9.514;2023-04-06T14:46:11;8.40;;;6.65;;
36423;SDS011;22458;45.328;9.514;2023-04-06T14:48:37;11.70;;;6.75;;
36423;SDS011;22458;45.328;9.514;2023-04-06T14:51:03;7.03;;;6.30;;
36423;SDS011;22458;45.328;9.514;2023-04-06T14:53:29;9.20;;;5.93;;
36423;SDS011;22458;45.328;9.514;2023-04-06T14:55:55;7.97;;;6.28;;
36423;SDS011;22458;45.328;9.514;2023-04-06T14:58:21;7.38;;;6.60;;
36423;SDS011;22458;45.328;9.514;2023-04-06T15:00:48;9.20;;;6.88;;
36423;SDS011;22458;45.328;9.514;2023-04-06T15:03:15;7.43;;;6.60;;
36423;SDS011;22458;45.328;9.514;2023-04-06T15:05:41;8.00;;;6.28;;
36423;SDS011;22458;45.328;9.514;2023-04-06T15:08:07;8.00;;;6.80;;